sensor_id;sensor_type;location;lat;lon;timestamp;P1;durP1;ratioP1;P2;durP2;ratioP2
23400;SDS011;11873;49.300;8.920;2022-10-17T00:02:03;5.80;;;2.95;;
23400;SDS011;11873;49.300;8.920;2022-10-17T00:07:04;4.23;;;3.20;;
23400;SDS011;11873;49.300;8.920;2022-10-17T00:12:04;6.50;;;3.13;;
23400;SDS011;11873;49.300;8.920;2022-10-17T00:17:04;4.13;;;3.10;;
23400;SDS011;11873;49.300;8.920;2022-10-17T00:22:05;4.40;;;2.90;;
23400;SDS011;11873;49.300;8.920;2022-10-17T00:27:05;6.57;;;3.07;;
23400;SDS011;11873;49.300;8.920;2022-10-17T00:32:05;4.37;;;2.80;;
23400;SDS011;11873;49.300;8.920;2022-10-17T00:37:05;3.77;;;3.00;;
23400;SDS011;11873;49.300;8.920;2022-10-17T00:42:06;3.03;;;2.63;;
23400;SDS011;11873;49.300;8.920;2022-10-17T00:47:10;4.10;;;2.63;;
23400;SDS011;11873;49.300;8.920;2022-10-17T00:52:12;5.47;;;2.63;;
23400;SDS011;11873;49.300;8.920;2022-10-17T00:57:14;4.23;;;2.87;;
23400;SDS011;11873;49.300;8.920;2022-10-17T01:02:16;20.57;;;10.80;;
23400;SDS011;11873;49.300;8.920;2022-10-17T01:07:17;8.97;;;4.33;;
23400;SDS011;11873;49.300;8.920;2022-10-17T01:17:58;4.17;;;2.57;;
23400;SDS011;11873;49.300;8.920;2022-10-17T01:28:29;4.10;;;2.80;;
23400;SDS011;11873;49.300;8.920;2022-10-17T01:33:42;8.23;;;2.50;;
23400;SDS011;11873;49.300;8.920;2022-10-17T01:38:56;2.80;;;2.60;;
23400;SDS011;11873;49.300;8.920;2022-10-17T01:43:58;5.93;;;2.87;;
23400;SDS011;11873;49.300;8.920;2022-10-17T01:49:01;7.87;;;2.87;;
23400;SDS011;11873;49.300;8.920;2022-10-17T01:54:08;3.07;;;2.67;;
23400;SDS011;11873;49.300;8.920;2022-10-17T01:59:11;2.47;;;2.27;;
23400;SDS011;11873;49.300;8.920;2022-10-17T02:04:12;2.30;;;2.10;;
23400;SDS011;11873;49.300;8.920;2022-10-17T02:14:25;4.03;;;2.20;;
23400;SDS011;11873;49.300;8.920;2022-10-17T02:19:36;1.93;;;1.83;;
23400;SDS011;11873;49.300;8.920;2022-10-17T02:24:54;3.43;;;1.90;;
23400;SDS011;11873;49.300;8.920;2022-10-17T02:30:09;2.83;;;2.47;;
23400;SDS011;11873;49.300;8.920;2022-10-17T02:35:11;3.73;;;2.37;;
23400;SDS011;11873;49.300;8.920;2022-10-17T02:40:13;2.40;;;2.10;;
23400;SDS011;11873;49.300;8.920;2022-10-17T02:45:15;3.90;;;1.90;;
23400;SDS011;11873;49.300;8.920;2022-10-17T02:50:15;4.83;;;2.30;;
23400;SDS011;11873;49.300;8.920;2022-10-17T02:55:17;2.40;;;1.90;;
23400;SDS011;11873;49.300;8.920;2022-10-17T03:00:18;1.67;;;1.57;;
23400;SDS011;11873;49.300;8.920;2022-10-17T03:05:23;2.47;;;1.90;;
23400;SDS011;11873;49.300;8.920;2022-10-17T03:10:24;3.07;;;2.17;;
23400;SDS011;11873;49.300;8.920;2022-10-17T03:15:24;4.43;;;2.00;;
23400;SDS011;11873;49.300;8.920;2022-10-17T03:20:24;2.10;;;1.90;;
23400;SDS011;11873;49.300;8.920;2022-10-17T03:25:24;2.07;;;1.90;;
23400;SDS011;11873;49.300;8.920;2022-10-17T03:30:25;4.33;;;2.07;;
23400;SDS011;11873;49.300;8.920;2022-10-17T03:35:25;2.87;;;2.47;;
23400;SDS011;11873;49.300;8.920;2022-10-17T03:40:25;3.27;;;2.30;;
23400;SDS011;11873;49.300;8.920;2022-10-17T03:45:25;2.37;;;2.03;;
23400;SDS011;11873;49.300;8.920;2022-10-17T03:50:26;2.07;;;1.87;;
23400;SDS011;11873;49.300;8.920;2022-10-17T03:55:26;2.23;;;2.03;;
23400;SDS011;11873;49.300;8.920;2022-10-17T04:00:26;3.08;;;2.03;;
23400;SDS011;11873;49.300;8.920;2022-10-17T04:05:26;2.80;;;2.13;;
23400;SDS011;11873;49.300;8.920;2022-10-17T04:10:26;2.50;;;2.23;;
23400;SDS011;11873;49.300;8.920;2022-10-17T04:15:27;4.90;;;2.63;;
23400;SDS011;11873;49.300;8.920;2022-10-17T04:20:27;5.10;;;2.80;;
23400;SDS011;11873;49.300;8.920;2022-10-17T04:25:27;3.60;;;3.27;;
23400;SDS011;11873;49.300;8.920;2022-10-17T04:30:27;2.67;;;2.23;;
23400;SDS011;11873;49.300;8.920;2022-10-17T04:35:27;3.77;;;2.37;;
23400;SDS011;11873;49.300;8.920;2022-10-17T04:40:28;2.90;;;2.70;;
23400;SDS011;11873;49.300;8.920;2022-10-17T04:45:28;5.20;;;2.50;;
23400;SDS011;11873;49.300;8.920;2022-10-17T04:50:28;2.43;;;2.27;;
23400;SDS011;11873;49.300;8.920;2022-10-17T04:55:28;4.00;;;2.13;;
23400;SDS011;11873;49.300;8.920;2022-10-17T05:00:28;2.53;;;2.33;;
23400;SDS011;11873;49.300;8.920;2022-10-17T05:05:29;4.83;;;2.73;;
23400;SDS011;11873;49.300;8.920;2022-10-17T05:10:29;3.50;;;2.40;;
23400;SDS011;11873;49.300;8.920;2022-10-17T05:15:29;3.07;;;2.57;;
23400;SDS011;11873;49.300;8.920;2022-10-17T05:20:30;8.77;;;3.67;;
23400;SDS011;11873;49.300;8.920;2022-10-17T05:25:31;9.93;;;4.40;;
23400;SDS011;11873;49.300;8.920;2022-10-17T05:30:31;5.27;;;3.03;;
23400;SDS011;11873;49.300;8.920;2022-10-17T05:35:31;9.17;;;3.60;;
23400;SDS011;11873;49.300;8.920;2022-10-17T05:40:32;5.93;;;3.73;;
23400;SDS011;11873;49.300;8.920;2022-10-17T05:45:32;5.13;;;4.27;;
23400;SDS011;11873;49.300;8.920;2022-10-17T05:50:32;6.40;;;3.13;;
23400;SDS011;11873;49.300;8.920;2022-10-17T05:55:32;6.17;;;3.57;;
23400;SDS011;11873;49.300;8.920;2022-10-17T06:00:33;3.63;;;2.97;;
23400;SDS011;11873;49.300;8.920;2022-10-17T06:05:34;4.13;;;3.33;;
23400;SDS011;11873;49.300;8.920;2022-10-17T06:10:34;3.60;;;3.10;;
23400;SDS011;11873;49.300;8.920;2022-10-17T06:15:34;5.63;;;3.83;;
23400;SDS011;11873;49.300;8.920;2022-10-17T06:20:34;5.20;;;4.40;;
23400;SDS011;11873;49.300;8.920;2022-10-17T06:25:34;4.67;;;2.97;;
23400;SDS011;11873;49.300;8.920;2022-10-17T06:30:36;5.73;;;3.10;;
23400;SDS011;11873;49.300;8.920;2022-10-17T06:35:36;7.40;;;4.07;;
23400;SDS011;11873;49.300;8.920;2022-10-17T06:40:36;4.07;;;3.70;;
23400;SDS011;11873;49.300;8.920;2022-10-17T06:45:37;4.03;;;3.13;;
23400;SDS011;11873;49.300;8.920;2022-10-17T06:50:38;5.43;;;2.90;;
23400;SDS011;11873;49.300;8.920;2022-10-17T06:55:38;6.20;;;3.80;;
23400;SDS011;11873;49.300;8.920;2022-10-17T07:00:38;6.73;;;3.57;;
23400;SDS011;11873;49.300;8.920;2022-10-17T07:05:38;8.07;;;3.17;;
23400;SDS011;11873;49.300;8.920;2022-10-17T07:10:38;4.03;;;2.60;;
23400;SDS011;11873;49.300;8.920;2022-10-17T07:15:39;2.60;;;2.40;;
23400;SDS011;11873;49.300;8.920;2022-10-17T07:20:39;6.17;;;2.93;;
23400;SDS011;11873;49.300;8.920;2022-10-17T07:25:39;4.77;;;3.93;;
23400;SDS011;11873;49.300;8.920;2022-10-17T07:30:40;5.37;;;4.80;;
23400;SDS011;11873;49.300;8.920;2022-10-17T07:35:40;3.07;;;2.70;;
23400;SDS011;11873;49.300;8.920;2022-10-17T07:40:40;4.07;;;2.87;;
23400;SDS011;11873;49.300;8.920;2022-10-17T07:45:40;6.60;;;3.70;;
23400;SDS011;11873;49.300;8.920;2022-10-17T07:50:40;2.90;;;2.57;;
23400;SDS011;11873;49.300;8.920;2022-10-17T07:55:41;2.70;;;2.20;;
23400;SDS011;11873;49.300;8.920;2022-10-17T08:00:41;4.67;;;2.60;;
23400;SDS011;11873;49.300;8.920;2022-10-17T08:05:41;2.80;;;2.20;;
23400;SDS011;11873;49.300;8.920;2022-10-17T08:10:42;4.83;;;2.53;;
23400;SDS011;11873;49.300;8.920;2022-10-17T08:15:42;2.23;;;1.70;;
23400;SDS011;11873;49.300;8.920;2022-10-17T08:20:42;5.40;;;2.03;;
23400;SDS011;11873;49.300;8.920;2022-10-17T08:25:42;5.10;;;1.97;;
23400;SDS011;11873;49.300;8.920;2022-10-17T08:30:43;2.90;;;2.13;;
23400;SDS011;11873;49.300;8.920;2022-10-17T08:35:43;1.80;;;1.70;;
23400;SDS011;11873;49.300;8.920;2022-10-17T08:40:43;4.60;;;2.30;;
23400;SDS011;11873;49.300;8.920;2022-10-17T08:45:51;3.93;;;1.87;;
23400;SDS011;11873;49.300;8.920;2022-10-17T08:50:57;2.20;;;1.97;;
23400;SDS011;11873;49.300;8.920;2022-10-17T08:55:59;3.40;;;1.90;;
23400;SDS011;11873;49.300;8.920;2022-10-17T09:06:23;6.13;;;2.47;;
23400;SDS011;11873;49.300;8.920;2022-10-17T09:16:30;6.00;;;1.60;;
23400;SDS011;11873;49.300;8.920;2022-10-17T09:21:41;4.47;;;2.10;;
23400;SDS011;11873;49.300;8.920;2022-10-17T09:26:43;1.37;;;1.30;;
23400;SDS011;11873;49.300;8.920;2022-10-17T09:32:26;6.17;;;1.83;;
23400;SDS011;11873;49.300;8.920;2022-10-17T09:37:11;1.90;;;1.70;;
23400;SDS011;11873;49.300;8.920;2022-10-17T09:42:13;5.13;;;3.47;;
23400;SDS011;11873;49.300;8.920;2022-10-17T09:47:17;1.53;;;1.43;;
23400;SDS011;11873;49.300;8.920;2022-10-17T09:52:21;2.47;;;1.87;;
23400;SDS011;11873;49.300;8.920;2022-10-17T09:57:23;2.73;;;1.70;;
23400;SDS011;11873;49.300;8.920;2022-10-17T10:02:23;1.93;;;1.73;;
23400;SDS011;11873;49.300;8.920;2022-10-17T10:07:25;1.87;;;1.77;;
23400;SDS011;11873;49.300;8.920;2022-10-17T10:12:27;1.53;;;1.43;;
23400;SDS011;11873;49.300;8.920;2022-10-17T10:22:27;2.03;;;1.73;;
23400;SDS011;11873;49.300;8.920;2022-10-17T10:27:28;3.07;;;2.00;;
23400;SDS011;11873;49.300;8.920;2022-10-17T10:32:29;2.73;;;1.97;;
23400;SDS011;11873;49.300;8.920;2022-10-17T10:37:37;1.70;;;1.60;;
23400;SDS011;11873;49.300;8.920;2022-10-17T10:42:38;2.00;;;1.73;;
23400;SDS011;11873;49.300;8.920;2022-10-17T10:47:39;2.87;;;1.80;;
23400;SDS011;11873;49.300;8.920;2022-10-17T10:52:51;1.70;;;1.60;;
23400;SDS011;11873;49.300;8.920;2022-10-17T10:57:54;3.03;;;1.83;;
23400;SDS011;11873;49.300;8.920;2022-10-17T11:08:02;1.80;;;1.50;;
23400;SDS011;11873;49.300;8.920;2022-10-17T11:13:09;5.87;;;1.97;;
23400;SDS011;11873;49.300;8.920;2022-10-17T11:18:12;4.87;;;2.07;;
23400;SDS011;11873;49.300;8.920;2022-10-17T11:28:27;2.93;;;1.60;;
23400;SDS011;11873;49.300;8.920;2022-10-17T11:33:29;2.87;;;1.87;;
23400;SDS011;11873;49.300;8.920;2022-10-17T11:38:39;4.07;;;1.63;;
23400;SDS011;11873;49.300;8.920;2022-10-17T11:43:56;2.67;;;1.60;;
23400;SDS011;11873;49.300;8.920;2022-10-17T11:49:06;2.80;;;1.80;;
23400;SDS011;11873;49.300;8.920;2022-10-17T11:54:16;9.03;;;2.03;;
23400;SDS011;11873;49.300;8.920;2022-10-17T12:09:46;1.83;;;1.73;;
23400;SDS011;11873;49.300;8.920;2022-10-17T12:14:48;1.80;;;1.70;;
23400;SDS011;11873;49.300;8.920;2022-10-17T12:19:48;3.60;;;1.97;;
23400;SDS011;11873;49.300;8.920;2022-10-17T12:24:53;3.83;;;1.90;;
23400;SDS011;11873;49.300;8.920;2022-10-17T12:30:00;2.27;;;1.77;;
23400;SDS011;11873;49.300;8.920;2022-10-17T12:35:01;4.97;;;2.27;;
23400;SDS011;11873;49.300;8.920;2022-10-17T12:40:01;3.53;;;1.50;;
23400;SDS011;11873;49.300;8.920;2022-10-17T12:45:15;1.93;;;1.63;;
23400;SDS011;11873;49.300;8.920;2022-10-17T12:51:08;4.27;;;2.10;;
23400;SDS011;11873;49.300;8.920;2022-10-17T12:55:42;5.73;;;1.47;;
23400;SDS011;11873;49.300;8.920;2022-10-17T13:00:46;2.30;;;1.80;;
23400;SDS011;11873;49.300;8.920;2022-10-17T13:05:49;2.63;;;1.93;;
23400;SDS011;11873;49.300;8.920;2022-10-17T13:10:50;4.50;;;2.17;;
23400;SDS011;11873;49.300;8.920;2022-10-17T13:15:52;3.13;;;1.40;;
23400;SDS011;11873;49.300;8.920;2022-10-17T13:21:03;4.47;;;1.53;;
23400;SDS011;11873;49.300;8.920;2022-10-17T13:26:11;2.87;;;1.77;;
23400;SDS011;11873;49.300;8.920;2022-10-17T13:31:34;2.63;;;1.90;;
23400;SDS011;11873;49.300;8.920;2022-10-17T13:36:35;2.80;;;2.13;;
23400;SDS011;11873;49.300;8.920;2022-10-17T13:41:35;2.40;;;1.03;;
23400;SDS011;11873;49.300;8.920;2022-10-17T13:46:35;2.07;;;1.90;;
23400;SDS011;11873;49.300;8.920;2022-10-17T13:51:41;1.70;;;1.60;;
23400;SDS011;11873;49.300;8.920;2022-10-17T14:01:51;6.20;;;2.30;;
23400;SDS011;11873;49.300;8.920;2022-10-17T14:06:52;2.13;;;1.77;;
23400;SDS011;11873;49.300;8.920;2022-10-17T14:12:11;2.17;;;1.83;;
23400;SDS011;11873;49.300;8.920;2022-10-17T14:17:12;2.23;;;1.77;;
23400;SDS011;11873;49.300;8.920;2022-10-17T14:27:32;1.63;;;1.53;;
23400;SDS011;11873;49.300;8.920;2022-10-17T14:32:34;2.03;;;1.83;;
23400;SDS011;11873;49.300;8.920;2022-10-17T14:37:42;2.20;;;1.83;;
23400;SDS011;11873;49.300;8.920;2022-10-17T14:42:43;1.90;;;1.73;;
23400;SDS011;11873;49.300;8.920;2022-10-17T14:47:47;2.03;;;1.77;;
23400;SDS011;11873;49.300;8.920;2022-10-17T14:53:04;3.40;;;1.80;;
23400;SDS011;11873;49.300;8.920;2022-10-17T14:58:18;2.63;;;2.00;;
23400;SDS011;11873;49.300;8.920;2022-10-17T15:03:20;2.00;;;1.87;;
23400;SDS011;11873;49.300;8.920;2022-10-17T15:08:21;5.07;;;1.80;;
23400;SDS011;11873;49.300;8.920;2022-10-17T15:13:21;2.37;;;2.17;;
23400;SDS011;11873;49.300;8.920;2022-10-17T15:18:21;2.40;;;2.07;;
23400;SDS011;11873;49.300;8.920;2022-10-17T15:23:22;4.50;;;2.00;;
23400;SDS011;11873;49.300;8.920;2022-10-17T15:28:23;1.90;;;1.80;;
23400;SDS011;11873;49.300;8.920;2022-10-17T15:33:23;4.87;;;1.93;;
23400;SDS011;11873;49.300;8.920;2022-10-17T15:38:23;2.90;;;2.10;;
23400;SDS011;11873;49.300;8.920;2022-10-17T15:43:23;1.90;;;1.63;;
23400;SDS011;11873;49.300;8.920;2022-10-17T15:48:25;2.33;;;1.60;;
23400;SDS011;11873;49.300;8.920;2022-10-17T15:53:27;5.37;;;2.23;;
23400;SDS011;11873;49.300;8.920;2022-10-17T15:58:31;1.90;;;1.80;;
23400;SDS011;11873;49.300;8.920;2022-10-17T16:03:33;3.63;;;2.13;;
23400;SDS011;11873;49.300;8.920;2022-10-17T16:08:33;3.80;;;2.07;;
23400;SDS011;11873;49.300;8.920;2022-10-17T16:13:33;3.30;;;1.83;;
23400;SDS011;11873;49.300;8.920;2022-10-17T16:18:33;5.80;;;2.07;;
23400;SDS011;11873;49.300;8.920;2022-10-17T16:23:33;2.63;;;2.40;;
23400;SDS011;11873;49.300;8.920;2022-10-17T16:28:34;7.97;;;2.67;;
23400;SDS011;11873;49.300;8.920;2022-10-17T16:33:34;7.67;;;3.03;;
23400;SDS011;11873;49.300;8.920;2022-10-17T16:38:34;3.10;;;2.80;;
23400;SDS011;11873;49.300;8.920;2022-10-17T16:43:34;9.27;;;3.67;;
23400;SDS011;11873;49.300;8.920;2022-10-17T16:48:35;6.03;;;3.53;;
23400;SDS011;11873;49.300;8.920;2022-10-17T16:53:35;4.23;;;2.93;;
23400;SDS011;11873;49.300;8.920;2022-10-17T16:58:35;6.22;;;3.37;;
23400;SDS011;11873;49.300;8.920;2022-10-17T17:03:36;5.87;;;3.87;;
23400;SDS011;11873;49.300;8.920;2022-10-17T17:08:36;8.97;;;4.07;;
23400;SDS011;11873;49.300;8.920;2022-10-17T17:13:36;11.00;;;3.53;;
23400;SDS011;11873;49.300;8.920;2022-10-17T17:18:37;3.63;;;3.20;;
23400;SDS011;11873;49.300;8.920;2022-10-17T17:23:38;6.70;;;3.63;;
23400;SDS011;11873;49.300;8.920;2022-10-17T17:28:41;6.57;;;3.13;;
23400;SDS011;11873;49.300;8.920;2022-10-17T17:33:42;6.80;;;5.23;;
23400;SDS011;11873;49.300;8.920;2022-10-17T17:38:42;8.33;;;4.23;;
23400;SDS011;11873;49.300;8.920;2022-10-17T17:43:43;11.17;;;4.63;;
23400;SDS011;11873;49.300;8.920;2022-10-17T17:48:44;10.50;;;4.67;;
23400;SDS011;11873;49.300;8.920;2022-10-17T17:53:45;7.30;;;3.73;;
23400;SDS011;11873;49.300;8.920;2022-10-17T17:58:46;7.47;;;4.07;;
23400;SDS011;11873;49.300;8.920;2022-10-17T18:03:50;6.23;;;3.83;;
23400;SDS011;11873;49.300;8.920;2022-10-17T18:08:52;7.00;;;4.53;;
23400;SDS011;11873;49.300;8.920;2022-10-17T18:13:57;9.90;;;4.60;;
23400;SDS011;11873;49.300;8.920;2022-10-17T18:18:58;7.53;;;4.37;;
23400;SDS011;11873;49.300;8.920;2022-10-17T18:24:02;4.13;;;3.60;;
23400;SDS011;11873;49.300;8.920;2022-10-17T18:29:03;3.90;;;3.57;;
23400;SDS011;11873;49.300;8.920;2022-10-17T18:34:03;7.50;;;3.90;;
23400;SDS011;11873;49.300;8.920;2022-10-17T18:39:04;3.70;;;3.13;;
23400;SDS011;11873;49.300;8.920;2022-10-17T18:44:04;4.43;;;3.40;;
23400;SDS011;11873;49.300;8.920;2022-10-17T18:49:05;3.90;;;3.33;;
23400;SDS011;11873;49.300;8.920;2022-10-17T18:54:10;6.63;;;3.30;;
23400;SDS011;11873;49.300;8.920;2022-10-17T18:59:11;8.80;;;4.00;;
23400;SDS011;11873;49.300;8.920;2022-10-17T19:04:11;3.92;;;3.10;;
23400;SDS011;11873;49.300;8.920;2022-10-17T19:09:11;6.67;;;3.97;;
23400;SDS011;11873;49.300;8.920;2022-10-17T19:14:12;5.67;;;3.43;;
23400;SDS011;11873;49.300;8.920;2022-10-17T19:19:14;5.10;;;4.03;;
23400;SDS011;11873;49.300;8.920;2022-10-17T19:24:22;5.33;;;3.13;;
23400;SDS011;11873;49.300;8.920;2022-10-17T19:29:24;8.37;;;4.10;;
23400;SDS011;11873;49.300;8.920;2022-10-17T19:34:25;3.73;;;3.43;;
23400;SDS011;11873;49.300;8.920;2022-10-17T19:39:25;7.50;;;3.73;;
23400;SDS011;11873;49.300;8.920;2022-10-17T19:44:25;6.77;;;3.60;;
23400;SDS011;11873;49.300;8.920;2022-10-17T19:49:25;4.25;;;3.40;;
23400;SDS011;11873;49.300;8.920;2022-10-17T19:54:26;8.77;;;3.67;;
23400;SDS011;11873;49.300;8.920;2022-10-17T19:59:26;5.07;;;3.97;;
23400;SDS011;11873;49.300;8.920;2022-10-17T20:04:26;7.73;;;3.50;;
23400;SDS011;11873;49.300;8.920;2022-10-17T20:09:26;6.17;;;3.10;;
23400;SDS011;11873;49.300;8.920;2022-10-17T20:14:26;3.97;;;2.90;;
23400;SDS011;11873;49.300;8.920;2022-10-17T20:19:27;5.43;;;4.00;;
23400;SDS011;11873;49.300;8.920;2022-10-17T20:24:27;4.00;;;2.93;;
23400;SDS011;11873;49.300;8.920;2022-10-17T20:29:27;5.70;;;3.30;;
23400;SDS011;11873;49.300;8.920;2022-10-17T20:34:27;4.63;;;4.10;;
23400;SDS011;11873;49.300;8.920;2022-10-17T20:39:28;7.40;;;4.17;;
23400;SDS011;11873;49.300;8.920;2022-10-17T20:44:28;7.60;;;3.47;;
23400;SDS011;11873;49.300;8.920;2022-10-17T20:49:28;4.67;;;3.10;;
23400;SDS011;11873;49.300;8.920;2022-10-17T20:54:29;6.17;;;3.53;;
23400;SDS011;11873;49.300;8.920;2022-10-17T20:59:29;9.13;;;4.57;;
23400;SDS011;11873;49.300;8.920;2022-10-17T21:04:30;5.97;;;3.50;;
23400;SDS011;11873;49.300;8.920;2022-10-17T21:09:30;6.37;;;3.60;;
23400;SDS011;11873;49.300;8.920;2022-10-17T21:14:30;6.40;;;3.53;;
23400;SDS011;11873;49.300;8.920;2022-10-17T21:19:30;5.50;;;3.50;;
23400;SDS011;11873;49.300;8.920;2022-10-17T21:24:30;6.17;;;3.70;;
23400;SDS011;11873;49.300;8.920;2022-10-17T21:29:31;6.30;;;3.60;;
23400;SDS011;11873;49.300;8.920;2022-10-17T21:34:31;4.47;;;3.67;;
23400;SDS011;11873;49.300;8.920;2022-10-17T21:39:31;3.03;;;2.83;;
23400;SDS011;11873;49.300;8.920;2022-10-17T21:44:31;4.50;;;3.10;;
23400;SDS011;11873;49.300;8.920;2022-10-17T21:49:31;4.83;;;3.37;;
23400;SDS011;11873;49.300;8.920;2022-10-17T21:54:32;10.23;;;3.20;;
23400;SDS011;11873;49.300;8.920;2022-10-17T21:59:32;8.97;;;3.97;;
23400;SDS011;11873;49.300;8.920;2022-10-17T22:04:32;3.62;;;3.30;;
23400;SDS011;11873;49.300;8.920;2022-10-17T22:09:32;6.93;;;3.20;;
23400;SDS011;11873;49.300;8.920;2022-10-17T22:14:33;6.03;;;3.27;;
23400;SDS011;11873;49.300;8.920;2022-10-17T22:19:33;8.15;;;3.10;;
23400;SDS011;11873;49.300;8.920;2022-10-17T22:24:33;3.87;;;3.50;;
23400;SDS011;11873;49.300;8.920;2022-10-17T22:29:33;6.17;;;3.30;;
23400;SDS011;11873;49.300;8.920;2022-10-17T22:34:34;6.27;;;3.53;;
23400;SDS011;11873;49.300;8.920;2022-10-17T22:39:34;11.97;;;4.07;;
23400;SDS011;11873;49.300;8.920;2022-10-17T22:44:34;7.10;;;3.37;;
23400;SDS011;11873;49.300;8.920;2022-10-17T22:49:34;6.67;;;4.27;;
23400;SDS011;11873;49.300;8.920;2022-10-17T22:54:34;3.70;;;3.40;;
23400;SDS011;11873;49.300;8.920;2022-10-17T22:59:35;6.87;;;4.03;;
23400;SDS011;11873;49.300;8.920;2022-10-17T23:04:35;7.07;;;4.23;;
23400;SDS011;11873;49.300;8.920;2022-10-17T23:09:35;5.10;;;4.30;;
23400;SDS011;11873;49.300;8.920;2022-10-17T23:14:36;4.40;;;3.67;;
23400;SDS011;11873;49.300;8.920;2022-10-17T23:19:36;6.97;;;3.90;;
23400;SDS011;11873;49.300;8.920;2022-10-17T23:24:36;6.60;;;3.30;;
23400;SDS011;11873;49.300;8.920;2022-10-17T23:29:36;5.67;;;4.80;;
23400;SDS011;11873;49.300;8.920;2022-10-17T23:34:36;8.50;;;5.10;;
23400;SDS011;11873;49.300;8.920;2022-10-17T23:39:37;4.30;;;3.90;;
23400;SDS011;11873;49.300;8.920;2022-10-17T23:44:37;5.57;;;3.60;;
23400;SDS011;11873;49.300;8.920;2022-10-17T23:49:37;4.90;;;3.53;;
23400;SDS011;11873;49.300;8.920;2022-10-17T23:54:37;6.13;;;3.63;;
23400;SDS011;11873;49.300;8.920;2022-10-17T23:59:37;7.07;;;3.80;;
